New Prague, MN

12:51 PM CDT on September 17, 2014 (GMT -0500)
Flying Cloud | Change Station
CLOSE
Current Station
Airport
Location: Minneapolis Flying Cloud,
Elevation: 906 ft
Nearby Weather Stations

Elev 906 ft 44.83 °N, 93.46 °W | Updated 1 hour ago

Partly Cloudy
Partly Cloudy
65 °F
Feels Like 65 °F
N
4
Wind Variable Wind from WSW

Today
High -- | Low -- °F
--% Chance of Precip.
Yesterday
High -- | Low -- °F
Precip. -- in
6:55 AM 7:21 PM
Waning Crescent, 34% visible
Pressure 29.95 in
Visibility 10.0 miles
Clouds Scattered Clouds 7000 ft
Dew Point 52 °F
Humidity 63%
Rainfall 0.00 in
Snow Depth Not available.
UV 4 out of 12
Pollen 3.60 out of 12
Ozone Good
PM2.5 Good
Flu Activity Not available.
METAR KFCM 171553Z 24003KT 10SM SCT070 18/11 A2995 RMK AO2 SLP141 T01830111

More Conditions Fewer Conditions

Pressure 29.95 in
Visibility 10.0 miles
Clouds Scattered Clouds 7000 ft
Dew Point 52 °F
Humidity 63%
Rainfall 0.00 in
Snow Depth Not available.
UV 4 out of 12
Pollen 3.60 out of 12
Ozone Good
PM2.5 Good
Flu Activity Not available.
METAR KFCM 171553Z 24003KT 10SM SCT070 18/11 A2995 RMK AO2 SLP141 T01830111

More Conditions Fewer Conditions

10-Day Weather Forecast

Almanac

Astronomy

Sep. 17, 2014 Rise Set
Actual Time 6:55 AM CDT 7:21 PM CDT
Civil Twilight 6:26 AM CDT 7:50 PM CDT
Nautical Twilight 5:51 AM CDT 8:24 PM CDT
Astronomical Twilight 5:16 AM CDT 8:59 PM CDT
Moon 12:45 AM CDT 3:40 PM CDT
Length of Visible Light 13h 23m
Length of Day
12h 25m
Tomorrow will be 3m 3s shorter.
Waning Crescent, 34% of the Moon is Illuminated
Today
Waning Crescent
Sep 24
New
Oct 1
First Quarter
Oct 8
Full
Oct 15
Last Quarter

Today's Extremes

State Highs State Lows

Community

WunderPhotos

Upload Photos

1,754,111 photos uploaded!

Nearby

Air Quality

  Air Quality AQ Index Pollutant
Yesterday Good
PM2.5
Yesterday Good
OZONE
Current Good
PM2.5
Current Good
OZONE
Wednesday Good
OZONE
Wednesday Good
PM2.5
Thursday Moderate
PM2.5
Thursday Good
OZONE
Friday Good
PM2.5
Friday Good
OZONE
Saturday Good
OZONE
Saturday Good
PM2.5
Sunday Good
OZONE
Sunday Good
PM2.5
Monday Good
OZONE
Monday Good
PM2.5

Snow Depth

Station Depth Elevation
No new snow has been reported.

Earthquake Activity

City Distance Mag. Time & Date
No recent earthquake activity has been reported nearby.
Minimum magnitude displayed is 2.5.

Coastal Water Temperatures

Place Temperature
No Stations Reporting

Nearby Weather Stations